sensor_id;sensor_type;location;lat;lon;timestamp;pressure;altitude;pressure_sealevel;temperature;humidity
55757;BME280;41676;44.610;44.078;2024-02-21T00:03:50;101578.59;;;-1.63;97.63
55757;BME280;41676;44.610;44.078;2024-02-21T00:08:51;101578.13;;;-1.72;97.00
55757;BME280;41676;44.610;44.078;2024-02-21T00:13:52;101572.84;;;-1.71;97.47
55757;BME280;41676;44.610;44.078;2024-02-21T00:18:53;101582.38;;;-1.70;97.75
55757;BME280;41676;44.610;44.078;2024-02-21T00:23:53;101570.44;;;-1.75;98.10
55757;BME280;41676;44.610;44.078;2024-02-21T00:28:54;101544.25;;;-1.94;97.37
55757;BME280;41676;44.610;44.078;2024-02-21T00:33:56;101587.81;;;-1.76;97.90
55757;BME280;41676;44.610;44.078;2024-02-21T00:38:56;101541.81;;;-1.99;97.65
55757;BME280;41676;44.610;44.078;2024-02-21T00:43:57;101576.66;;;-1.79;97.25
55757;BME280;41676;44.610;44.078;2024-02-21T00:48:58;101581.75;;;-1.76;97.37
55757;BME280;41676;44.610;44.078;2024-02-21T00:53:59;101577.94;;;-1.68;97.18
55757;BME280;41676;44.610;44.078;2024-02-21T00:58:59;101579.69;;;-1.68;98.09
55757;BME280;41676;44.610;44.078;2024-02-21T01:04:00;101570.53;;;-1.78;97.33
55757;BME280;41676;44.610;44.078;2024-02-21T01:09:01;101579.38;;;-1.83;97.76
55757;BME280;41676;44.610;44.078;2024-02-21T01:14:02;101575.75;;;-1.78;98.16
55757;BME280;41676;44.610;44.078;2024-02-21T01:19:03;101579.28;;;-1.79;98.25
55757;BME280;41676;44.610;44.078;2024-02-21T01:24:04;101538.94;;;-2.15;98.12
55757;BME280;41676;44.610;44.078;2024-02-21T01:29:04;101565.47;;;-2.05;97.74
55757;BME280;41676;44.610;44.078;2024-02-21T01:34:05;101571.97;;;-1.93;99.02
55757;BME280;41676;44.610;44.078;2024-02-21T01:39:06;101584.56;;;-1.83;98.46
55757;BME280;41676;44.610;44.078;2024-02-21T01:44:07;101578.03;;;-1.93;97.54
55757;BME280;41676;44.610;44.078;2024-02-21T01:49:08;101531.97;;;-2.14;98.34
55757;BME280;41676;44.610;44.078;2024-02-21T01:54:10;101575.41;;;-1.93;98.61
55757;BME280;41676;44.610;44.078;2024-02-21T01:59:11;101592.13;;;-1.98;98.06
55757;BME280;41676;44.610;44.078;2024-02-21T02:04:14;101555.63;;;-2.20;98.02
55757;BME280;41676;44.610;44.078;2024-02-21T02:09:14;101578.22;;;-1.97;99.32
55757;BME280;41676;44.610;44.078;2024-02-21T02:14:15;101594.50;;;-1.92;99.00
55757;BME280;41676;44.610;44.078;2024-02-21T02:19:16;101588.53;;;-1.94;98.99
55757;BME280;41676;44.610;44.078;2024-02-21T02:24:17;101551.41;;;-2.24;98.88
55757;BME280;41676;44.610;44.078;2024-02-21T02:29:18;101596.47;;;-1.99;98.94
55757;BME280;41676;44.610;44.078;2024-02-21T02:34:19;101596.25;;;-1.93;99.10
55757;BME280;41676;44.610;44.078;2024-02-21T02:39:20;101508.69;;;-2.42;99.38
55757;BME280;41676;44.610;44.078;2024-02-21T02:44:21;101592.13;;;-1.98;98.45
55757;BME280;41676;44.610;44.078;2024-02-21T02:49:22;101598.16;;;-1.98;98.75
55757;BME280;41676;44.610;44.078;2024-02-21T02:54:22;101597.28;;;-1.97;99.68
55757;BME280;41676;44.610;44.078;2024-02-21T02:59:23;101586.88;;;-1.97;99.92
55757;BME280;41676;44.610;44.078;2024-02-21T03:04:24;101518.69;;;-2.30;99.59
55757;BME280;41676;44.610;44.078;2024-02-21T03:09:25;101604.75;;;-1.88;100.00
55757;BME280;41676;44.610;44.078;2024-02-21T03:14:25;101609.03;;;-1.87;100.00
55757;BME280;41676;44.610;44.078;2024-02-21T03:19:26;101594.38;;;-1.89;100.00
55757;BME280;41676;44.610;44.078;2024-02-21T03:24:27;101555.84;;;-2.26;100.00
55757;BME280;41676;44.610;44.078;2024-02-21T03:29:29;101592.41;;;-2.06;100.00
55757;BME280;41676;44.610;44.078;2024-02-21T03:34:30;101583.19;;;-2.15;100.00
55757;BME280;41676;44.610;44.078;2024-02-21T03:39:31;101621.50;;;-1.95;100.00
55757;BME280;41676;44.610;44.078;2024-02-21T03:44:36;101620.53;;;-1.92;100.00
55757;BME280;41676;44.610;44.078;2024-02-21T03:49:37;101565.09;;;-2.18;100.00
55757;BME280;41676;44.610;44.078;2024-02-21T03:54:38;101622.38;;;-1.94;100.00
55757;BME280;41676;44.610;44.078;2024-02-21T03:59:39;101641.09;;;-1.85;100.00
55757;BME280;41676;44.610;44.078;2024-02-21T04:04:43;101642.22;;;-1.92;100.00
55757;BME280;41676;44.610;44.078;2024-02-21T04:09:46;101648.06;;;-1.85;100.00
55757;BME280;41676;44.610;44.078;2024-02-21T04:14:47;101634.97;;;-2.07;100.00
55757;BME280;41676;44.610;44.078;2024-02-21T04:19:48;101666.47;;;-1.90;100.00
55757;BME280;41676;44.610;44.078;2024-02-21T04:24:48;101668.03;;;-1.86;100.00
55757;BME280;41676;44.610;44.078;2024-02-21T04:29:49;101660.28;;;-1.87;100.00
55757;BME280;41676;44.610;44.078;2024-02-21T04:34:50;101581.41;;;-2.38;100.00
55757;BME280;41676;44.610;44.078;2024-02-21T04:39:51;101684.47;;;-1.84;100.00
55757;BME280;41676;44.610;44.078;2024-02-21T04:44:52;101682.66;;;-1.81;100.00
55757;BME280;41676;44.610;44.078;2024-02-21T04:49:52;101657.50;;;-2.06;100.00
55757;BME280;41676;44.610;44.078;2024-02-21T04:54:53;101688.13;;;-1.89;100.00
55757;BME280;41676;44.610;44.078;2024-02-21T04:59:54;101684.06;;;-1.96;100.00
55757;BME280;41676;44.610;44.078;2024-02-21T05:04:55;101696.56;;;-1.83;100.00
55757;BME280;41676;44.610;44.078;2024-02-21T05:09:56;101695.00;;;-1.87;100.00
55757;BME280;41676;44.610;44.078;2024-02-21T05:14:56;101699.59;;;-1.93;100.00
55757;BME280;41676;44.610;44.078;2024-02-21T05:19:57;101695.69;;;-1.81;100.00
55757;BME280;41676;44.610;44.078;2024-02-21T05:24:58;101707.66;;;-1.76;100.00
55757;BME280;41676;44.610;44.078;2024-02-21T05:29:59;101650.47;;;-2.04;100.00
55757;BME280;41676;44.610;44.078;2024-02-21T05:35:00;101699.84;;;-1.76;100.00
55757;BME280;41676;44.610;44.078;2024-02-21T05:40:01;101691.28;;;-1.79;100.00
55757;BME280;41676;44.610;44.078;2024-02-21T05:45:01;101689.22;;;-1.71;100.00
55757;BME280;41676;44.610;44.078;2024-02-21T05:50:02;101698.56;;;-1.66;100.00
55757;BME280;41676;44.610;44.078;2024-02-21T05:55:04;101698.56;;;-1.66;100.00
55757;BME280;41676;44.610;44.078;2024-02-21T06:00:07;101702.69;;;-1.58;100.00
55757;BME280;41676;44.610;44.078;2024-02-21T06:05:08;101704.19;;;-1.53;100.00
55757;BME280;41676;44.610;44.078;2024-02-21T06:10:09;101687.78;;;-1.55;100.00
55757;BME280;41676;44.610;44.078;2024-02-21T06:15:10;101702.13;;;-1.45;100.00
55757;BME280;41676;44.610;44.078;2024-02-21T06:20:11;101703.94;;;-1.47;100.00
55757;BME280;41676;44.610;44.078;2024-02-21T06:25:12;101692.44;;;-1.41;100.00
55757;BME280;41676;44.610;44.078;2024-02-21T06:30:13;101697.63;;;-1.40;100.00
55757;BME280;41676;44.610;44.078;2024-02-21T06:35:14;101675.13;;;-1.42;100.00
55757;BME280;41676;44.610;44.078;2024-02-21T06:40:15;101689.19;;;-1.24;100.00
55757;BME280;41676;44.610;44.078;2024-02-21T06:45:16;101628.16;;;-1.41;100.00
55757;BME280;41676;44.610;44.078;2024-02-21T06:50:17;101636.75;;;-1.39;100.00
55757;BME280;41676;44.610;44.078;2024-02-21T06:55:18;101679.75;;;-1.05;100.00
55757;BME280;41676;44.610;44.078;2024-02-21T07:00:19;101677.13;;;-1.05;100.00
55757;BME280;41676;44.610;44.078;2024-02-21T07:05:20;101656.25;;;-1.05;100.00
55757;BME280;41676;44.610;44.078;2024-02-21T07:10:21;101666.94;;;-0.89;100.00
55757;BME280;41676;44.610;44.078;2024-02-21T07:15:22;101614.75;;;-1.09;100.00
55757;BME280;41676;44.610;44.078;2024-02-21T07:20:22;101675.91;;;-0.74;100.00
55757;BME280;41676;44.610;44.078;2024-02-21T07:25:23;101664.69;;;-0.76;100.00
55757;BME280;41676;44.610;44.078;2024-02-21T07:30:24;101665.41;;;-0.73;100.00
55757;BME280;41676;44.610;44.078;2024-02-21T07:35:25;101679.84;;;-0.64;100.00
55757;BME280;41676;44.610;44.078;2024-02-21T07:40:26;101669.47;;;-0.65;100.00
55757;BME280;41676;44.610;44.078;2024-02-21T07:45:26;101680.16;;;-0.51;100.00
55757;BME280;41676;44.610;44.078;2024-02-21T07:50:27;101621.63;;;-0.86;99.91
55757;BME280;41676;44.610;44.078;2024-02-21T07:55:28;101625.94;;;-0.85;100.00
55757;BME280;41676;44.610;44.078;2024-02-21T08:00:29;101661.13;;;-0.53;100.00
55757;BME280;41676;44.610;44.078;2024-02-21T08:05:30;101664.59;;;-0.32;99.97
55757;BME280;41676;44.610;44.078;2024-02-21T08:10:31;101659.69;;;-0.40;99.59
55757;BME280;41676;44.610;44.078;2024-02-21T08:15:32;101635.56;;;-0.65;100.00
55757;BME280;41676;44.610;44.078;2024-02-21T08:20:34;101620.47;;;-0.59;100.00
55757;BME280;41676;44.610;44.078;2024-02-21T08:25:35;101625.56;;;-0.56;99.89
55757;BME280;41676;44.610;44.078;2024-02-21T08:30:36;101661.97;;;-0.12;99.86
55757;BME280;41676;44.610;44.078;2024-02-21T08:35:37;101672.72;;;0.01;99.18
55757;BME280;41676;44.610;44.078;2024-02-21T08:40:37;101665.91;;;-0.03;97.94
55757;BME280;41676;44.610;44.078;2024-02-21T08:45:38;101663.13;;;-0.19;98.84
55757;BME280;41676;44.610;44.078;2024-02-21T08:50:39;101661.59;;;-0.23;98.87
55757;BME280;41676;44.610;44.078;2024-02-21T08:55:40;101663.28;;;-0.22;98.61
55757;BME280;41676;44.610;44.078;2024-02-21T09:00:41;101643.88;;;-0.16;98.72
55757;BME280;41676;44.610;44.078;2024-02-21T09:05:42;101665.47;;;0.08;98.21
55757;BME280;41676;44.610;44.078;2024-02-21T09:10:43;101671.88;;;0.01;97.80
55757;BME280;41676;44.610;44.078;2024-02-21T09:15:44;101656.38;;;0.16;97.68
55757;BME280;41676;44.610;44.078;2024-02-21T09:20:44;101646.28;;;0.28;96.89
55757;BME280;41676;44.610;44.078;2024-02-21T09:25:45;101589.13;;;0.01;96.56
55757;BME280;41676;44.610;44.078;2024-02-21T09:30:46;101655.53;;;0.35;96.90
55757;BME280;41676;44.610;44.078;2024-02-21T09:35:47;101649.72;;;0.47;96.70
55757;BME280;41676;44.610;44.078;2024-02-21T09:41:04;101618.59;;;0.42;95.62
55757;BME280;41676;44.610;44.078;2024-02-21T09:46:15;101647.28;;;0.63;95.22
55757;BME280;41676;44.610;44.078;2024-02-21T09:51:17;101644.22;;;0.53;95.73
55757;BME280;41676;44.610;44.078;2024-02-21T09:56:19;101616.13;;;0.39;95.03
55757;BME280;41676;44.610;44.078;2024-02-21T10:01:20;101639.69;;;0.57;94.30
55757;BME280;41676;44.610;44.078;2024-02-21T10:06:21;101631.56;;;0.63;94.80
55757;BME280;41676;44.610;44.078;2024-02-21T10:11:23;101629.44;;;0.71;95.05
55757;BME280;41676;44.610;44.078;2024-02-21T10:16:24;101603.94;;;0.57;94.36
55757;BME280;41676;44.610;44.078;2024-02-21T10:21:25;101594.09;;;0.62;94.78
55757;BME280;41676;44.610;44.078;2024-02-21T10:26:26;101593.97;;;0.83;94.98
55757;BME280;41676;44.610;44.078;2024-02-21T10:31:28;101597.78;;;0.95;93.88
55757;BME280;41676;44.610;44.078;2024-02-21T10:36:29;101587.63;;;1.06;94.29
55757;BME280;41676;44.610;44.078;2024-02-21T10:41:31;101586.22;;;1.16;93.94
55757;BME280;41676;44.610;44.078;2024-02-21T10:46:35;101586.69;;;1.07;93.70
55757;BME280;41676;44.610;44.078;2024-02-21T10:51:40;101585.38;;;0.98;94.21
55757;BME280;41676;44.610;44.078;2024-02-21T10:56:43;101568.31;;;0.91;93.94
55757;BME280;41676;44.610;44.078;2024-02-21T11:01:45;101573.00;;;1.02;94.21
55757;BME280;41676;44.610;44.078;2024-02-21T11:06:46;101564.38;;;1.00;93.46
55757;BME280;41676;44.610;44.078;2024-02-21T11:11:49;101560.06;;;0.99;94.14
55757;BME280;41676;44.610;44.078;2024-02-21T11:16:50;101569.53;;;1.19;93.90
55757;BME280;41676;44.610;44.078;2024-02-21T11:21:52;101563.94;;;1.09;93.78
55757;BME280;41676;44.610;44.078;2024-02-21T11:26:53;101517.59;;;0.76;94.16
55757;BME280;41676;44.610;44.078;2024-02-21T11:31:54;101562.56;;;1.02;94.50
55757;BME280;41676;44.610;44.078;2024-02-21T11:36:55;101574.53;;;1.06;94.73
55757;BME280;41676;44.610;44.078;2024-02-21T11:42:04;101529.28;;;0.69;94.13
55757;BME280;41676;44.610;44.078;2024-02-21T11:47:06;101557.16;;;0.87;94.64
55757;BME280;41676;44.610;44.078;2024-02-21T11:52:07;101587.16;;;0.98;95.02
55757;BME280;41676;44.610;44.078;2024-02-21T11:57:08;101585.47;;;0.97;94.63
55757;BME280;41676;44.610;44.078;2024-02-21T12:02:09;101537.13;;;0.69;95.07
55757;BME280;41676;44.610;44.078;2024-02-21T12:07:10;101526.09;;;0.62;95.63
55757;BME280;41676;44.610;44.078;2024-02-21T12:12:11;101587.31;;;0.95;95.80
55757;BME280;41676;44.610;44.078;2024-02-21T12:17:12;101568.66;;;0.83;95.86
55757;BME280;41676;44.610;44.078;2024-02-21T12:22:17;101583.06;;;0.92;95.69
55757;BME280;41676;44.610;44.078;2024-02-21T12:27:18;101589.00;;;0.96;95.59
55757;BME280;41676;44.610;44.078;2024-02-21T12:32:20;101539.56;;;0.55;95.96
55757;BME280;41676;44.610;44.078;2024-02-21T12:37:22;101594.06;;;0.81;95.98
55757;BME280;41676;44.610;44.078;2024-02-21T12:42:25;101588.59;;;0.86;96.42
55757;BME280;41676;44.610;44.078;2024-02-21T12:47:26;101599.50;;;0.77;96.56
55757;BME280;41676;44.610;44.078;2024-02-21T12:52:27;101609.00;;;0.79;96.46
55757;BME280;41676;44.610;44.078;2024-02-21T12:57:29;101621.44;;;0.74;96.80
55757;BME280;41676;44.610;44.078;2024-02-21T13:02:29;101604.13;;;0.72;96.83
55757;BME280;41676;44.610;44.078;2024-02-21T13:07:30;101588.66;;;0.67;97.46
55757;BME280;41676;44.610;44.078;2024-02-21T13:12:32;101592.06;;;0.69;97.43
55757;BME280;41676;44.610;44.078;2024-02-21T13:17:33;101589.19;;;0.74;97.98
55757;BME280;41676;44.610;44.078;2024-02-21T13:22:34;101588.22;;;0.76;97.86
55757;BME280;41676;44.610;44.078;2024-02-21T13:27:35;101580.66;;;0.70;98.13
55757;BME280;41676;44.610;44.078;2024-02-21T13:32:36;101539.31;;;0.42;97.68
55757;BME280;41676;44.610;44.078;2024-02-21T13:37:38;101562.94;;;0.58;98.58
55757;BME280;41676;44.610;44.078;2024-02-21T13:42:39;101591.03;;;0.72;98.44
55757;BME280;41676;44.610;44.078;2024-02-21T13:47:40;101460.63;;;-0.07;98.19
55757;BME280;41676;44.610;44.078;2024-02-21T13:52:42;101591.97;;;0.71;98.51
55757;BME280;41676;44.610;44.078;2024-02-21T13:57:43;101587.72;;;0.68;98.35
55757;BME280;41676;44.610;44.078;2024-02-21T14:02:44;101581.16;;;0.59;98.35
55757;BME280;41676;44.610;44.078;2024-02-21T14:07:45;101591.34;;;0.65;98.81
55757;BME280;41676;44.610;44.078;2024-02-21T14:12:46;101590.44;;;0.66;98.97
55757;BME280;41676;44.610;44.078;2024-02-21T14:17:48;101580.31;;;0.59;99.00
55757;BME280;41676;44.610;44.078;2024-02-21T14:22:48;101581.94;;;0.61;99.46
55757;BME280;41676;44.610;44.078;2024-02-21T14:27:49;101585.50;;;0.60;99.74
55757;BME280;41676;44.610;44.078;2024-02-21T14:32:50;101594.09;;;0.62;100.00
55757;BME280;41676;44.610;44.078;2024-02-21T14:37:52;101580.75;;;0.50;99.82
55757;BME280;41676;44.610;44.078;2024-02-21T14:42:53;101545.25;;;0.27;100.00
55757;BME280;41676;44.610;44.078;2024-02-21T14:47:54;101581.19;;;0.40;100.00
55757;BME280;41676;44.610;44.078;2024-02-21T14:52:55;101550.00;;;0.18;100.00
55757;BME280;41676;44.610;44.078;2024-02-21T14:57:56;101599.16;;;0.48;100.00
55757;BME280;41676;44.610;44.078;2024-02-21T15:02:57;101599.22;;;0.47;100.00
55757;BME280;41676;44.610;44.078;2024-02-21T15:07:58;101603.50;;;0.48;100.00
55757;BME280;41676;44.610;44.078;2024-02-21T15:12:59;101575.78;;;0.26;100.00
55757;BME280;41676;44.610;44.078;2024-02-21T15:17:59;101612.00;;;0.53;100.00
55757;BME280;41676;44.610;44.078;2024-02-21T15:23:00;101568.78;;;0.27;100.00
55757;BME280;41676;44.610;44.078;2024-02-21T15:28:05;101609.38;;;0.53;100.00
55757;BME280;41676;44.610;44.078;2024-02-21T15:33:06;101602.47;;;0.52;100.00
55757;BME280;41676;44.610;44.078;2024-02-21T15:38:07;101599.16;;;0.48;100.00
55757;BME280;41676;44.610;44.078;2024-02-21T15:43:09;101547.31;;;0.20;100.00
55757;BME280;41676;44.610;44.078;2024-02-21T15:48:10;101604.84;;;0.56;100.00
55757;BME280;41676;44.610;44.078;2024-02-21T15:53:13;101598.00;;;0.54;100.00
55757;BME280;41676;44.610;44.078;2024-02-21T15:58:14;101602.38;;;0.53;100.00
55757;BME280;41676;44.610;44.078;2024-02-21T16:03:15;101593.78;;;0.51;100.00
55757;BME280;41676;44.610;44.078;2024-02-21T16:08:16;101559.19;;;0.27;100.00
55757;BME280;41676;44.610;44.078;2024-02-21T16:13:18;101600.53;;;0.55;100.00
55757;BME280;41676;44.610;44.078;2024-02-21T16:18:19;101574.19;;;0.41;100.00
55757;BME280;41676;44.610;44.078;2024-02-21T16:23:21;101475.75;;;-0.14;100.00
55757;BME280;41676;44.610;44.078;2024-02-21T16:28:21;101519.78;;;0.13;100.00
55757;BME280;41676;44.610;44.078;2024-02-21T16:33:22;101591.22;;;0.50;100.00
55757;BME280;41676;44.610;44.078;2024-02-21T16:38:24;101500.16;;;0.04;100.00
55757;BME280;41676;44.610;44.078;2024-02-21T16:43:27;101573.84;;;0.49;100.00
55757;BME280;41676;44.610;44.078;2024-02-21T16:48:27;101561.81;;;0.44;100.00
55757;BME280;41676;44.610;44.078;2024-02-21T16:53:29;101548.34;;;0.35;100.00
55757;BME280;41676;44.610;44.078;2024-02-21T16:58:31;101497.47;;;0.06;100.00
55757;BME280;41676;44.610;44.078;2024-02-21T17:03:37;101527.69;;;0.30;100.00
55757;BME280;41676;44.610;44.078;2024-02-21T17:08:38;101539.38;;;0.40;100.00
55757;BME280;41676;44.610;44.078;2024-02-21T17:13:41;101515.91;;;0.39;100.00
55757;BME280;41676;44.610;44.078;2024-02-21T17:18:43;101498.53;;;0.38;100.00
55757;BME280;41676;44.610;44.078;2024-02-21T17:23:45;101498.41;;;0.41;100.00
55757;BME280;41676;44.610;44.078;2024-02-21T17:28:46;101502.47;;;0.47;100.00
55757;BME280;41676;44.610;44.078;2024-02-21T17:33:47;101466.78;;;0.28;100.00
55757;BME280;41676;44.610;44.078;2024-02-21T17:38:48;101462.25;;;0.32;100.00
55757;BME280;41676;44.610;44.078;2024-02-21T17:43:51;101453.41;;;0.34;100.00
55757;BME280;41676;44.610;44.078;2024-02-21T17:48:52;101503.28;;;0.66;100.00
55757;BME280;41676;44.610;44.078;2024-02-21T17:53:53;101475.25;;;0.51;100.00
55757;BME280;41676;44.610;44.078;2024-02-21T17:58:54;101505.75;;;0.69;100.00
55757;BME280;41676;44.610;44.078;2024-02-21T18:03:54;101515.13;;;0.73;100.00
55757;BME280;41676;44.610;44.078;2024-02-21T18:08:55;101515.97;;;0.74;100.00
55757;BME280;41676;44.610;44.078;2024-02-21T18:13:58;101526.28;;;0.77;100.00
55757;BME280;41676;44.610;44.078;2024-02-21T18:19:02;101484.66;;;0.55;100.00
55757;BME280;41676;44.610;44.078;2024-02-21T18:24:04;101536.28;;;0.86;100.00
55757;BME280;41676;44.610;44.078;2024-02-21T18:29:05;101536.22;;;0.87;100.00
55757;BME280;41676;44.610;44.078;2024-02-21T18:34:06;101513.44;;;0.72;100.00
55757;BME280;41676;44.610;44.078;2024-02-21T18:39:06;101532.34;;;0.77;100.00
55757;BME280;41676;44.610;44.078;2024-02-21T18:44:07;101480.97;;;0.59;100.00
55757;BME280;41676;44.610;44.078;2024-02-21T18:49:08;101511.28;;;0.80;100.00
55757;BME280;41676;44.610;44.078;2024-02-21T18:54:09;101528.91;;;0.94;100.00
55757;BME280;41676;44.610;44.078;2024-02-21T18:59:10;101523.69;;;0.94;100.00
55757;BME280;41676;44.610;44.078;2024-02-21T19:04:11;101534.81;;;0.98;100.00
55757;BME280;41676;44.610;44.078;2024-02-21T19:09:12;101533.97;;;0.97;100.00
55757;BME280;41676;44.610;44.078;2024-02-21T19:14:13;101510.28;;;0.83;100.00
55757;BME280;41676;44.610;44.078;2024-02-21T19:19:14;101524.19;;;1.01;100.00
55757;BME280;41676;44.610;44.078;2024-02-21T19:24:15;101519.81;;;1.01;100.00
55757;BME280;41676;44.610;44.078;2024-02-21T19:29:16;101521.53;;;1.02;100.00
55757;BME280;41676;44.610;44.078;2024-02-21T19:34:17;101524.19;;;1.01;100.00
55757;BME280;41676;44.610;44.078;2024-02-21T19:39:19;101508.66;;;0.98;100.00
55757;BME280;41676;44.610;44.078;2024-02-21T19:44:20;101483.13;;;0.85;100.00
55757;BME280;41676;44.610;44.078;2024-02-21T19:49:23;101444.19;;;0.62;100.00
55757;BME280;41676;44.610;44.078;2024-02-21T19:54:27;101438.97;;;0.62;100.00
55757;BME280;41676;44.610;44.078;2024-02-21T19:59:27;101499.34;;;0.92;100.00
55757;BME280;41676;44.610;44.078;2024-02-21T20:04:28;101502.81;;;0.93;100.00
55757;BME280;41676;44.610;44.078;2024-02-21T20:09:29;101505.41;;;0.93;100.00
55757;BME280;41676;44.610;44.078;2024-02-21T20:14:30;101500.50;;;0.86;100.00
55757;BME280;41676;44.610;44.078;2024-02-21T20:19:31;101423.22;;;0.46;100.00
55757;BME280;41676;44.610;44.078;2024-02-21T20:24:32;101490.34;;;0.98;100.00
55757;BME280;41676;44.610;44.078;2024-02-21T20:29:33;101511.97;;;1.01;100.00
55757;BME280;41676;44.610;44.078;2024-02-21T20:34:34;101466.13;;;0.77;100.00
55757;BME280;41676;44.610;44.078;2024-02-21T20:39:35;101453.88;;;0.77;100.00
55757;BME280;41676;44.610;44.078;2024-02-21T20:44:36;101499.66;;;1.03;100.00
55757;BME280;41676;44.610;44.078;2024-02-21T20:49:36;101499.97;;;0.97;100.00
55757;BME280;41676;44.610;44.078;2024-02-21T20:54:37;101504.09;;;1.01;100.00
55757;BME280;41676;44.610;44.078;2024-02-21T20:59:38;101437.91;;;0.66;100.00
55757;BME280;41676;44.610;44.078;2024-02-21T21:04:39;101449.06;;;0.70;100.00
55757;BME280;41676;44.610;44.078;2024-02-21T21:09:40;101479.56;;;0.86;100.00
55757;BME280;41676;44.610;44.078;2024-02-21T21:14:42;101483.91;;;0.87;100.00
55757;BME280;41676;44.610;44.078;2024-02-21T21:19:43;101453.88;;;0.77;100.00
55757;BME280;41676;44.610;44.078;2024-02-21T21:24:43;101452.34;;;0.73;100.00
55757;BME280;41676;44.610;44.078;2024-02-21T21:29:44;101461.41;;;0.83;100.00
55757;BME280;41676;44.610;44.078;2024-02-21T21:34:45;101386.78;;;0.43;100.00
55757;BME280;41676;44.610;44.078;2024-02-21T21:39:46;101427.44;;;0.66;100.00
55757;BME280;41676;44.610;44.078;2024-02-21T21:44:52;101364.91;;;0.27;100.00
55757;BME280;41676;44.610;44.078;2024-02-21T21:49:53;101441.13;;;0.54;100.00
55757;BME280;41676;44.610;44.078;2024-02-21T21:54:53;101368.25;;;0.13;100.00
55757;BME280;41676;44.610;44.078;2024-02-21T21:59:54;101396.69;;;0.19;100.00
55757;BME280;41676;44.610;44.078;2024-02-21T22:04:55;101452.66;;;0.50;100.00
55757;BME280;41676;44.610;44.078;2024-02-21T22:09:56;101419.66;;;0.47;100.00
55757;BME280;41676;44.610;44.078;2024-02-21T22:14:57;101381.00;;;0.19;100.00
55757;BME280;41676;44.610;44.078;2024-02-21T22:19:58;101433.72;;;0.44;100.00
55757;BME280;41676;44.610;44.078;2024-02-21T22:24:59;101388.06;;;0.17;100.00
55757;BME280;41676;44.610;44.078;2024-02-21T22:29:59;101433.56;;;0.48;100.00
55757;BME280;41676;44.610;44.078;2024-02-21T22:35:01;101424.69;;;0.52;100.00
55757;BME280;41676;44.610;44.078;2024-02-21T22:40:02;101444.66;;;0.53;100.00
55757;BME280;41676;44.610;44.078;2024-02-21T22:45:03;101370.06;;;0.11;100.00
55757;BME280;41676;44.610;44.078;2024-02-21T22:50:04;101425.03;;;0.44;100.00
55757;BME280;41676;44.610;44.078;2024-02-21T22:55:06;101429.44;;;0.43;100.00
55757;BME280;41676;44.610;44.078;2024-02-21T23:00:07;101431.13;;;0.27;100.00
55757;BME280;41676;44.610;44.078;2024-02-21T23:05:08;101439.53;;;0.15;100.00
55757;BME280;41676;44.610;44.078;2024-02-21T23:10:09;101382.91;;;-0.21;100.00
55757;BME280;41676;44.610;44.078;2024-02-21T23:15:13;101432.78;;;0.11;100.00
55757;BME280;41676;44.610;44.078;2024-02-21T23:20:14;101386.41;;;-0.20;100.00
55757;BME280;41676;44.610;44.078;2024-02-21T23:25:15;101429.00;;;-0.01;100.00
55757;BME280;41676;44.610;44.078;2024-02-21T23:30:16;101417.91;;;-0.06;100.00
55757;BME280;41676;44.610;44.078;2024-02-21T23:35:17;101405.44;;;-0.18;100.00
55757;BME280;41676;44.610;44.078;2024-02-21T23:40:18;101337.69;;;-0.58;100.00
55757;BME280;41676;44.610;44.078;2024-02-21T23:45:18;101371.03;;;-0.46;100.00
55757;BME280;41676;44.610;44.078;2024-02-21T23:50:19;101400.78;;;-0.31;100.00
55757;BME280;41676;44.610;44.078;2024-02-21T23:55:20;101371.97;;;-0.47;100.00
